sensor_id;sensor_type;location;lat;lon;timestamp;temperature;humidity
24560;DHT22;12727;49.934;8.656;2023-02-28T00:02:21;-1.20;95.00
24560;DHT22;12727;49.934;8.656;2023-02-28T00:04:46;-1.20;94.90
24560;DHT22;12727;49.934;8.656;2023-02-28T00:07:26;-1.20;95.00
24560;DHT22;12727;49.934;8.656;2023-02-28T00:09:53;-1.20;95.10
24560;DHT22;12727;49.934;8.656;2023-02-28T00:12:18;-1.10;95.20
24560;DHT22;12727;49.934;8.656;2023-02-28T00:14:44;-1.10;95.00
24560;DHT22;12727;49.934;8.656;2023-02-28T00:17:09;-1.00;94.90
24560;DHT22;12727;49.934;8.656;2023-02-28T00:19:35;-1.00;95.10
24560;DHT22;12727;49.934;8.656;2023-02-28T00:22:00;-1.00;95.00
24560;DHT22;12727;49.934;8.656;2023-02-28T00:24:26;-1.00;95.50
24560;DHT22;12727;49.934;8.656;2023-02-28T00:26:52;-1.00;95.10
24560;DHT22;12727;49.934;8.656;2023-02-28T00:29:17;-1.00;95.30
24560;DHT22;12727;49.934;8.656;2023-02-28T00:31:43;-1.10;95.30
24560;DHT22;12727;49.934;8.656;2023-02-28T00:34:08;-1.20;95.50
24560;DHT22;12727;49.934;8.656;2023-02-28T00:36:34;-1.20;95.60
24560;DHT22;12727;49.934;8.656;2023-02-28T00:38:59;-1.20;95.50
24560;DHT22;12727;49.934;8.656;2023-02-28T00:41:25;-1.20;95.90
24560;DHT22;12727;49.934;8.656;2023-02-28T00:43:51;-1.20;96.30
24560;DHT22;12727;49.934;8.656;2023-02-28T00:46:16;-1.20;96.00
24560;DHT22;12727;49.934;8.656;2023-02-28T00:48:42;-1.10;96.40
24560;DHT22;12727;49.934;8.656;2023-02-28T00:51:07;-1.20;96.50
24560;DHT22;12727;49.934;8.656;2023-02-28T00:53:33;-1.20;96.80
24560;DHT22;12727;49.934;8.656;2023-02-28T00:55:59;-1.20;96.70
24560;DHT22;12727;49.934;8.656;2023-02-28T00:58:24;-1.00;97.10
24560;DHT22;12727;49.934;8.656;2023-02-28T01:00:51;-0.90;96.60
24560;DHT22;12727;49.934;8.656;2023-02-28T01:03:19;-0.90;96.80
24560;DHT22;12727;49.934;8.656;2023-02-28T01:05:45;-0.90;97.00
24560;DHT22;12727;49.934;8.656;2023-02-28T01:08:11;-0.90;96.80
24560;DHT22;12727;49.934;8.656;2023-02-28T01:10:37;-0.90;96.80
24560;DHT22;12727;49.934;8.656;2023-02-28T01:13:04;-0.90;96.90
24560;DHT22;12727;49.934;8.656;2023-02-28T01:15:29;-0.90;96.90
24560;DHT22;12727;49.934;8.656;2023-02-28T01:17:57;-0.90;97.10
24560;DHT22;12727;49.934;8.656;2023-02-28T01:20:24;-1.00;97.50
24560;DHT22;12727;49.934;8.656;2023-02-28T01:22:49;-1.10;97.80
24560;DHT22;12727;49.934;8.656;2023-02-28T01:25:15;-1.10;98.30
24560;DHT22;12727;49.934;8.656;2023-02-28T01:27:41;-1.00;98.00
24560;DHT22;12727;49.934;8.656;2023-02-28T01:30:08;-1.10;98.10
24560;DHT22;12727;49.934;8.656;2023-02-28T01:32:34;-1.10;98.60
24560;DHT22;12727;49.934;8.656;2023-02-28T01:34:59;-1.10;99.00
24560;DHT22;12727;49.934;8.656;2023-02-28T01:37:25;-1.20;98.80
24560;DHT22;12727;49.934;8.656;2023-02-28T01:39:50;-1.30;99.90
24560;DHT22;12727;49.934;8.656;2023-02-28T01:42:16;-1.20;99.90
24560;DHT22;12727;49.934;8.656;2023-02-28T01:47:19;-1.20;99.90
24560;DHT22;12727;49.934;8.656;2023-02-28T01:49:45;-1.20;99.90
24560;DHT22;12727;49.934;8.656;2023-02-28T01:52:12;-1.20;99.90
24560;DHT22;12727;49.934;8.656;2023-02-28T01:54:49;-1.20;99.90
24560;DHT22;12727;49.934;8.656;2023-02-28T01:57:19;-1.20;99.90
24560;DHT22;12727;49.934;8.656;2023-02-28T01:59:52;-1.20;99.90
24560;DHT22;12727;49.934;8.656;2023-02-28T02:02:20;-1.20;99.90
24560;DHT22;12727;49.934;8.656;2023-02-28T02:05:07;-1.10;99.90
24560;DHT22;12727;49.934;8.656;2023-02-28T02:07:35;-1.10;99.90
24560;DHT22;12727;49.934;8.656;2023-02-28T02:10:06;-1.20;99.90
24560;DHT22;12727;49.934;8.656;2023-02-28T02:12:55;-1.30;99.90
24560;DHT22;12727;49.934;8.656;2023-02-28T02:18:11;-1.30;99.90
24560;DHT22;12727;49.934;8.656;2023-02-28T02:21:18;-1.30;99.90
24560;DHT22;12727;49.934;8.656;2023-02-28T02:26:51;-1.30;99.90
24560;DHT22;12727;49.934;8.656;2023-02-28T02:32:22;-1.50;99.90
24560;DHT22;12727;49.934;8.656;2023-02-28T02:37:37;-1.40;99.90
24560;DHT22;12727;49.934;8.656;2023-02-28T02:40:25;-1.50;99.90
24560;DHT22;12727;49.934;8.656;2023-02-28T02:43:11;-1.50;99.90
24560;DHT22;12727;49.934;8.656;2023-02-28T02:45:59;-1.40;99.90
24560;DHT22;12727;49.934;8.656;2023-02-28T02:48:30;-1.40;99.90
24560;DHT22;12727;49.934;8.656;2023-02-28T02:51:00;-1.40;99.90
24560;DHT22;12727;49.934;8.656;2023-02-28T02:53:34;-1.40;99.90
24560;DHT22;12727;49.934;8.656;2023-02-28T02:56:00;-1.50;99.90
24560;DHT22;12727;49.934;8.656;2023-02-28T02:58:30;-1.50;99.90
24560;DHT22;12727;49.934;8.656;2023-02-28T03:00:59;-1.40;99.90
24560;DHT22;12727;49.934;8.656;2023-02-28T03:03:27;-1.40;99.90
24560;DHT22;12727;49.934;8.656;2023-02-28T03:05:57;-1.40;99.90
24560;DHT22;12727;49.934;8.656;2023-02-28T03:08:23;-1.30;99.90
24560;DHT22;12727;49.934;8.656;2023-02-28T03:10:50;-1.40;99.90
24560;DHT22;12727;49.934;8.656;2023-02-28T03:26:41;-1.60;99.90
24560;DHT22;12727;49.934;8.656;2023-02-28T03:31:46;-1.60;99.90
24560;DHT22;12727;49.934;8.656;2023-02-28T03:34:25;-1.50;99.90
24560;DHT22;12727;49.934;8.656;2023-02-28T03:36:55;-1.50;99.90
24560;DHT22;12727;49.934;8.656;2023-02-28T03:39:27;-1.60;99.90
24560;DHT22;12727;49.934;8.656;2023-02-28T03:42:00;-1.70;99.90
24560;DHT22;12727;49.934;8.656;2023-02-28T03:44:32;-1.70;99.90
24560;DHT22;12727;49.934;8.656;2023-02-28T03:47:03;-1.60;99.90
24560;DHT22;12727;49.934;8.656;2023-02-28T03:49:57;-1.70;99.90
24560;DHT22;12727;49.934;8.656;2023-02-28T03:52:25;-1.70;99.90
24560;DHT22;12727;49.934;8.656;2023-02-28T03:54:54;-1.70;99.90
24560;DHT22;12727;49.934;8.656;2023-02-28T04:00:09;-1.70;99.90
24560;DHT22;12727;49.934;8.656;2023-02-28T04:02:36;-1.60;99.90
24560;DHT22;12727;49.934;8.656;2023-02-28T04:05:02;-1.60;99.90
24560;DHT22;12727;49.934;8.656;2023-02-28T04:07:31;-1.60;99.90
24560;DHT22;12727;49.934;8.656;2023-02-28T04:09:57;-1.60;99.90
24560;DHT22;12727;49.934;8.656;2023-02-28T04:12:23;-1.70;99.90
24560;DHT22;12727;49.934;8.656;2023-02-28T04:14:49;-1.80;99.90
24560;DHT22;12727;49.934;8.656;2023-02-28T04:17:15;-1.80;99.90
24560;DHT22;12727;49.934;8.656;2023-02-28T04:19:41;-1.80;99.90
24560;DHT22;12727;49.934;8.656;2023-02-28T04:22:08;-1.70;99.90
24560;DHT22;12727;49.934;8.656;2023-02-28T04:24:34;-1.70;99.90
24560;DHT22;12727;49.934;8.656;2023-02-28T04:26:59;-1.70;99.90
24560;DHT22;12727;49.934;8.656;2023-02-28T04:31:52;-1.60;99.90
24560;DHT22;12727;49.934;8.656;2023-02-28T04:34:29;-1.60;99.90
24560;DHT22;12727;49.934;8.656;2023-02-28T04:36:55;-1.60;99.90
24560;DHT22;12727;49.934;8.656;2023-02-28T04:39:23;-1.60;99.90
24560;DHT22;12727;49.934;8.656;2023-02-28T04:41:49;-1.60;99.90
24560;DHT22;12727;49.934;8.656;2023-02-28T04:44:15;-1.60;99.90
24560;DHT22;12727;49.934;8.656;2023-02-28T04:46:41;-1.60;99.90
24560;DHT22;12727;49.934;8.656;2023-02-28T04:49:07;-1.50;99.90
24560;DHT22;12727;49.934;8.656;2023-02-28T04:51:33;-1.40;99.90
24560;DHT22;12727;49.934;8.656;2023-02-28T04:53:58;-1.40;99.90
24560;DHT22;12727;49.934;8.656;2023-02-28T04:56:24;-1.50;99.90
24560;DHT22;12727;49.934;8.656;2023-02-28T04:58:50;-1.50;99.90
24560;DHT22;12727;49.934;8.656;2023-02-28T05:03:47;-1.50;99.90
24560;DHT22;12727;49.934;8.656;2023-02-28T05:06:13;-1.60;99.90
24560;DHT22;12727;49.934;8.656;2023-02-28T05:08:40;-1.50;99.90
24560;DHT22;12727;49.934;8.656;2023-02-28T05:11:15;-1.50;99.90
24560;DHT22;12727;49.934;8.656;2023-02-28T05:13:41;-1.50;99.90
24560;DHT22;12727;49.934;8.656;2023-02-28T05:16:07;-1.50;99.90
24560;DHT22;12727;49.934;8.656;2023-02-28T05:18:33;-1.60;99.90
24560;DHT22;12727;49.934;8.656;2023-02-28T05:21:00;-1.50;99.90
24560;DHT22;12727;49.934;8.656;2023-02-28T05:23:27;-1.50;99.90
24560;DHT22;12727;49.934;8.656;2023-02-28T05:25:53;-1.50;99.90
24560;DHT22;12727;49.934;8.656;2023-02-28T05:28:19;-1.60;99.90
24560;DHT22;12727;49.934;8.656;2023-02-28T05:30:45;-1.70;99.90
24560;DHT22;12727;49.934;8.656;2023-02-28T05:33:11;-1.70;99.90
24560;DHT22;12727;49.934;8.656;2023-02-28T05:35:41;-1.70;99.90
24560;DHT22;12727;49.934;8.656;2023-02-28T05:38:08;-1.80;99.90
24560;DHT22;12727;49.934;8.656;2023-02-28T05:40:34;-1.80;99.90
24560;DHT22;12727;49.934;8.656;2023-02-28T05:43:00;-1.70;99.90
24560;DHT22;12727;49.934;8.656;2023-02-28T05:45:25;-1.70;99.90
24560;DHT22;12727;49.934;8.656;2023-02-28T05:47:54;-1.70;99.90
24560;DHT22;12727;49.934;8.656;2023-02-28T05:50:20;-1.70;99.90
24560;DHT22;12727;49.934;8.656;2023-02-28T05:52:52;-1.80;99.90
24560;DHT22;12727;49.934;8.656;2023-02-28T05:55:17;-1.80;99.90
24560;DHT22;12727;49.934;8.656;2023-02-28T05:57:43;-1.90;99.90
24560;DHT22;12727;49.934;8.656;2023-02-28T06:00:09;-1.90;99.90
24560;DHT22;12727;49.934;8.656;2023-02-28T06:02:35;-1.90;99.90
24560;DHT22;12727;49.934;8.656;2023-02-28T06:05:01;-1.90;99.90
24560;DHT22;12727;49.934;8.656;2023-02-28T06:07:27;-1.90;99.90
24560;DHT22;12727;49.934;8.656;2023-02-28T06:09:52;-1.90;99.90
24560;DHT22;12727;49.934;8.656;2023-02-28T06:12:18;-1.80;99.90
24560;DHT22;12727;49.934;8.656;2023-02-28T06:14:43;-1.80;99.90
24560;DHT22;12727;49.934;8.656;2023-02-28T06:17:09;-1.70;99.90
24560;DHT22;12727;49.934;8.656;2023-02-28T06:19:37;-1.70;99.90
24560;DHT22;12727;49.934;8.656;2023-02-28T06:22:04;-1.70;99.90
24560;DHT22;12727;49.934;8.656;2023-02-28T06:24:30;-1.60;99.90
24560;DHT22;12727;49.934;8.656;2023-02-28T06:26:56;-1.60;99.90
24560;DHT22;12727;49.934;8.656;2023-02-28T06:29:24;-1.70;99.90
24560;DHT22;12727;49.934;8.656;2023-02-28T06:31:50;-1.60;99.90
24560;DHT22;12727;49.934;8.656;2023-02-28T06:34:16;-1.60;99.90
24560;DHT22;12727;49.934;8.656;2023-02-28T06:36:42;-1.60;99.90
24560;DHT22;12727;49.934;8.656;2023-02-28T06:39:08;-1.60;99.90
24560;DHT22;12727;49.934;8.656;2023-02-28T06:41:35;-1.50;99.90
24560;DHT22;12727;49.934;8.656;2023-02-28T06:44:04;-1.30;99.90
24560;DHT22;12727;49.934;8.656;2023-02-28T06:46:31;-1.20;99.90
24560;DHT22;12727;49.934;8.656;2023-02-28T06:49:00;-1.00;99.90
24560;DHT22;12727;49.934;8.656;2023-02-28T06:51:26;-0.80;99.90
24560;DHT22;12727;49.934;8.656;2023-02-28T06:53:54;-0.70;99.90
24560;DHT22;12727;49.934;8.656;2023-02-28T06:56:20;-0.50;99.90
24560;DHT22;12727;49.934;8.656;2023-02-28T06:58:49;-0.30;99.90
24560;DHT22;12727;49.934;8.656;2023-02-28T07:01:16;-0.20;99.90
24560;DHT22;12727;49.934;8.656;2023-02-28T07:03:41;0.00;99.90
24560;DHT22;12727;49.934;8.656;2023-02-28T07:06:07;0.10;99.90
24560;DHT22;12727;49.934;8.656;2023-02-28T07:08:33;0.30;99.90
24560;DHT22;12727;49.934;8.656;2023-02-28T07:10:59;0.50;99.90
24560;DHT22;12727;49.934;8.656;2023-02-28T07:13:25;0.60;99.90
24560;DHT22;12727;49.934;8.656;2023-02-28T07:15:58;0.70;99.90
24560;DHT22;12727;49.934;8.656;2023-02-28T07:18:24;0.90;99.90
24560;DHT22;12727;49.934;8.656;2023-02-28T07:20:50;0.90;99.20
24560;DHT22;12727;49.934;8.656;2023-02-28T07:23:16;1.20;99.70
24560;DHT22;12727;49.934;8.656;2023-02-28T07:25:42;1.40;98.40
24560;DHT22;12727;49.934;8.656;2023-02-28T07:28:09;1.50;97.30
24560;DHT22;12727;49.934;8.656;2023-02-28T07:30:34;1.70;97.40
24560;DHT22;12727;49.934;8.656;2023-02-28T07:33:00;1.60;96.50
24560;DHT22;12727;49.934;8.656;2023-02-28T07:35:26;1.60;96.60
24560;DHT22;12727;49.934;8.656;2023-02-28T07:37:51;1.90;96.30
24560;DHT22;12727;49.934;8.656;2023-02-28T07:40:17;2.10;96.10
24560;DHT22;12727;49.934;8.656;2023-02-28T07:42:43;2.30;94.70
24560;DHT22;12727;49.934;8.656;2023-02-28T07:45:10;2.20;95.20
24560;DHT22;12727;49.934;8.656;2023-02-28T07:47:38;2.20;94.10
24560;DHT22;12727;49.934;8.656;2023-02-28T07:50:05;2.20;94.00
24560;DHT22;12727;49.934;8.656;2023-02-28T07:52:31;2.30;94.30
24560;DHT22;12727;49.934;8.656;2023-02-28T07:54:57;2.30;93.70
24560;DHT22;12727;49.934;8.656;2023-02-28T07:57:23;2.50;92.50
24560;DHT22;12727;49.934;8.656;2023-02-28T07:59:48;2.50;92.70
24560;DHT22;12727;49.934;8.656;2023-02-28T08:02:16;2.70;92.90
24560;DHT22;12727;49.934;8.656;2023-02-28T08:04:42;2.80;92.40
24560;DHT22;12727;49.934;8.656;2023-02-28T08:07:08;3.00;90.50
24560;DHT22;12727;49.934;8.656;2023-02-28T08:09:42;2.80;90.30
24560;DHT22;12727;49.934;8.656;2023-02-28T08:12:11;2.50;90.90
24560;DHT22;12727;49.934;8.656;2023-02-28T08:14:37;2.80;90.80
24560;DHT22;12727;49.934;8.656;2023-02-28T08:17:03;3.00;89.30
24560;DHT22;12727;49.934;8.656;2023-02-28T08:19:30;2.80;90.70
24560;DHT22;12727;49.934;8.656;2023-02-28T08:21:56;3.00;90.00
24560;DHT22;12727;49.934;8.656;2023-02-28T08:24:22;3.10;88.00
24560;DHT22;12727;49.934;8.656;2023-02-28T08:26:48;3.10;89.60
24560;DHT22;12727;49.934;8.656;2023-02-28T08:29:13;3.40;88.30
24560;DHT22;12727;49.934;8.656;2023-02-28T08:31:39;3.40;85.60
24560;DHT22;12727;49.934;8.656;2023-02-28T08:34:09;3.50;85.90
24560;DHT22;12727;49.934;8.656;2023-02-28T08:36:36;3.90;87.40
24560;DHT22;12727;49.934;8.656;2023-02-28T08:39:03;4.10;83.40
24560;DHT22;12727;49.934;8.656;2023-02-28T08:41:29;4.10;81.10
24560;DHT22;12727;49.934;8.656;2023-02-28T08:43:54;4.30;82.10
24560;DHT22;12727;49.934;8.656;2023-02-28T08:46:20;4.60;83.10
24560;DHT22;12727;49.934;8.656;2023-02-28T08:48:46;4.70;79.80
24560;DHT22;12727;49.934;8.656;2023-02-28T08:51:15;4.90;79.40
24560;DHT22;12727;49.934;8.656;2023-02-28T08:53:47;4.60;76.70
24560;DHT22;12727;49.934;8.656;2023-02-28T08:56:15;4.30;77.60
24560;DHT22;12727;49.934;8.656;2023-02-28T08:58:42;4.40;80.00
24560;DHT22;12727;49.934;8.656;2023-02-28T09:01:10;5.50;80.40
24560;DHT22;12727;49.934;8.656;2023-02-28T09:03:38;5.80;73.50
24560;DHT22;12727;49.934;8.656;2023-02-28T09:06:04;5.80;72.50
24560;DHT22;12727;49.934;8.656;2023-02-28T09:08:30;5.90;72.10
24560;DHT22;12727;49.934;8.656;2023-02-28T09:10:57;5.80;72.20
24560;DHT22;12727;49.934;8.656;2023-02-28T09:13:26;6.10;71.70
24560;DHT22;12727;49.934;8.656;2023-02-28T09:15:52;6.10;72.50
24560;DHT22;12727;49.934;8.656;2023-02-28T09:18:18;6.20;68.60
24560;DHT22;12727;49.934;8.656;2023-02-28T09:20:44;6.10;68.40
24560;DHT22;12727;49.934;8.656;2023-02-28T09:23:11;6.10;68.50
24560;DHT22;12727;49.934;8.656;2023-02-28T09:25:48;6.10;68.90
24560;DHT22;12727;49.934;8.656;2023-02-28T09:28:14;6.20;68.10
24560;DHT22;12727;49.934;8.656;2023-02-28T09:30:48;6.00;67.80
24560;DHT22;12727;49.934;8.656;2023-02-28T09:33:14;6.00;67.70
24560;DHT22;12727;49.934;8.656;2023-02-28T09:35:40;6.40;69.30
24560;DHT22;12727;49.934;8.656;2023-02-28T09:38:06;7.20;66.80
24560;DHT22;12727;49.934;8.656;2023-02-28T09:40:36;7.30;61.60
24560;DHT22;12727;49.934;8.656;2023-02-28T09:43:03;7.10;60.50
24560;DHT22;12727;49.934;8.656;2023-02-28T09:45:33;7.30;63.10
24560;DHT22;12727;49.934;8.656;2023-02-28T09:48:04;7.40;59.60
24560;DHT22;12727;49.934;8.656;2023-02-28T09:50:36;7.80;59.10
24560;DHT22;12727;49.934;8.656;2023-02-28T09:53:18;7.00;60.00
24560;DHT22;12727;49.934;8.656;2023-02-28T09:55:58;6.60;59.70
24560;DHT22;12727;49.934;8.656;2023-02-28T10:03:59;7.50;58.80
24560;DHT22;12727;49.934;8.656;2023-02-28T10:06:32;6.90;58.40
24560;DHT22;12727;49.934;8.656;2023-02-28T10:11:36;7.70;57.70
24560;DHT22;12727;49.934;8.656;2023-02-28T10:16:58;7.40;56.80
24560;DHT22;12727;49.934;8.656;2023-02-28T10:22:50;7.40;57.10
24560;DHT22;12727;49.934;8.656;2023-02-28T10:25:26;7.50;56.90
24560;DHT22;12727;49.934;8.656;2023-02-28T10:27:54;6.30;58.20
24560;DHT22;12727;49.934;8.656;2023-02-28T10:30:24;6.00;59.30
24560;DHT22;12727;49.934;8.656;2023-02-28T10:32:51;5.30;62.40
24560;DHT22;12727;49.934;8.656;2023-02-28T10:35:26;6.40;62.70
24560;DHT22;12727;49.934;8.656;2023-02-28T10:37:56;6.80;58.60
24560;DHT22;12727;49.934;8.656;2023-02-28T10:43:04;6.60;58.70
24560;DHT22;12727;49.934;8.656;2023-02-28T10:45:32;6.80;58.60
24560;DHT22;12727;49.934;8.656;2023-02-28T11:01:23;5.60;62.40
24560;DHT22;12727;49.934;8.656;2023-02-28T11:03:50;6.00;61.30
24560;DHT22;12727;49.934;8.656;2023-02-28T11:06:27;5.60;61.00
24560;DHT22;12727;49.934;8.656;2023-02-28T11:09:13;6.00;62.30
24560;DHT22;12727;49.934;8.656;2023-02-28T11:11:44;7.10;59.60
24560;DHT22;12727;49.934;8.656;2023-02-28T11:14:24;7.70;57.00
24560;DHT22;12727;49.934;8.656;2023-02-28T11:16:51;8.00;56.10
24560;DHT22;12727;49.934;8.656;2023-02-28T11:19:24;7.70;56.80
24560;DHT22;12727;49.934;8.656;2023-02-28T11:21:57;7.90;56.10
24560;DHT22;12727;49.934;8.656;2023-02-28T11:24:35;7.80;55.70
24560;DHT22;12727;49.934;8.656;2023-02-28T11:27:02;7.60;55.70
24560;DHT22;12727;49.934;8.656;2023-02-28T11:29:31;7.20;55.90
24560;DHT22;12727;49.934;8.656;2023-02-28T11:32:13;6.20;58.10
24560;DHT22;12727;49.934;8.656;2023-02-28T11:34:41;5.60;61.10
24560;DHT22;12727;49.934;8.656;2023-02-28T11:37:16;5.80;61.70
24560;DHT22;12727;49.934;8.656;2023-02-28T11:39:43;6.10;59.30
24560;DHT22;12727;49.934;8.656;2023-02-28T11:51:01;5.50;60.00
24560;DHT22;12727;49.934;8.656;2023-02-28T11:53:53;5.30;62.00
24560;DHT22;12727;49.934;8.656;2023-02-28T11:56:36;5.20;62.40
24560;DHT22;12727;49.934;8.656;2023-02-28T12:02:05;5.20;62.30
24560;DHT22;12727;49.934;8.656;2023-02-28T12:16:17;4.90;62.90
24560;DHT22;12727;49.934;8.656;2023-02-28T12:21:54;4.90;63.70
24560;DHT22;12727;49.934;8.656;2023-02-28T12:27:25;4.90;63.30
24560;DHT22;12727;49.934;8.656;2023-02-28T12:30:01;4.70;64.20
24560;DHT22;12727;49.934;8.656;2023-02-28T12:32:32;4.60;64.60
24560;DHT22;12727;49.934;8.656;2023-02-28T12:35:32;4.80;65.40
24560;DHT22;12727;49.934;8.656;2023-02-28T12:38:06;5.10;64.70
24560;DHT22;12727;49.934;8.656;2023-02-28T12:41:03;5.10;64.70
24560;DHT22;12727;49.934;8.656;2023-02-28T12:43:36;5.00;63.30
24560;DHT22;12727;49.934;8.656;2023-02-28T12:46:09;4.90;63.10
24560;DHT22;12727;49.934;8.656;2023-02-28T12:48:48;4.80;64.10
24560;DHT22;12727;49.934;8.656;2023-02-28T12:51:16;4.80;64.10
24560;DHT22;12727;49.934;8.656;2023-02-28T12:56:20;4.90;64.30
24560;DHT22;12727;49.934;8.656;2023-02-28T12:58:58;4.80;63.90
24560;DHT22;12727;49.934;8.656;2023-02-28T13:01:39;4.90;64.00
24560;DHT22;12727;49.934;8.656;2023-02-28T13:09:30;5.10;64.70
24560;DHT22;12727;49.934;8.656;2023-02-28T13:11:57;5.20;63.90
24560;DHT22;12727;49.934;8.656;2023-02-28T13:14:29;5.00;64.30
24560;DHT22;12727;49.934;8.656;2023-02-28T13:17:10;5.10;64.90
24560;DHT22;12727;49.934;8.656;2023-02-28T13:19:46;5.10;65.00
24560;DHT22;12727;49.934;8.656;2023-02-28T13:22:42;5.10;64.70
24560;DHT22;12727;49.934;8.656;2023-02-28T13:27:54;4.90;64.50
24560;DHT22;12727;49.934;8.656;2023-02-28T13:44:14;5.10;65.60
24560;DHT22;12727;49.934;8.656;2023-02-28T13:49:28;5.00;65.40
24560;DHT22;12727;49.934;8.656;2023-02-28T14:03:38;5.20;66.40
24560;DHT22;12727;49.934;8.656;2023-02-28T14:11:39;5.10;64.90
24560;DHT22;12727;49.934;8.656;2023-02-28T14:14:07;5.20;64.60
24560;DHT22;12727;49.934;8.656;2023-02-28T14:16:39;5.20;65.30
24560;DHT22;12727;49.934;8.656;2023-02-28T14:19:37;5.20;65.40
24560;DHT22;12727;49.934;8.656;2023-02-28T14:22:04;5.30;65.40
24560;DHT22;12727;49.934;8.656;2023-02-28T14:27:37;5.20;64.20
24560;DHT22;12727;49.934;8.656;2023-02-28T14:30:43;5.10;63.80
24560;DHT22;12727;49.934;8.656;2023-02-28T14:34:05;5.10;64.60
24560;DHT22;12727;49.934;8.656;2023-02-28T14:36:24;5.10;65.40
24560;DHT22;12727;49.934;8.656;2023-02-28T14:39:00;5.10;65.10
24560;DHT22;12727;49.934;8.656;2023-02-28T14:41:32;5.10;65.80
24560;DHT22;12727;49.934;8.656;2023-02-28T14:44:12;5.10;64.60
24560;DHT22;12727;49.934;8.656;2023-02-28T14:46:39;5.10;65.20
24560;DHT22;12727;49.934;8.656;2023-02-28T14:49:06;5.10;65.60
24560;DHT22;12727;49.934;8.656;2023-02-28T14:51:37;5.10;65.70
24560;DHT22;12727;49.934;8.656;2023-02-28T14:54:03;5.10;66.30
24560;DHT22;12727;49.934;8.656;2023-02-28T14:56:37;5.10;66.70
24560;DHT22;12727;49.934;8.656;2023-02-28T14:59:05;5.10;66.20
24560;DHT22;12727;49.934;8.656;2023-02-28T15:01:31;5.20;67.10
24560;DHT22;12727;49.934;8.656;2023-02-28T15:04:02;5.20;67.70
24560;DHT22;12727;49.934;8.656;2023-02-28T15:06:28;5.30;67.10
24560;DHT22;12727;49.934;8.656;2023-02-28T15:09:16;5.30;66.80
24560;DHT22;12727;49.934;8.656;2023-02-28T15:11:46;5.30;66.70
24560;DHT22;12727;49.934;8.656;2023-02-28T15:14:18;5.30;66.00
24560;DHT22;12727;49.934;8.656;2023-02-28T15:16:46;5.20;65.80
24560;DHT22;12727;49.934;8.656;2023-02-28T15:19:23;5.20;66.50
24560;DHT22;12727;49.934;8.656;2023-02-28T15:22:14;5.20;67.20
24560;DHT22;12727;49.934;8.656;2023-02-28T15:24:46;5.20;67.70
24560;DHT22;12727;49.934;8.656;2023-02-28T15:27:19;5.20;68.80
24560;DHT22;12727;49.934;8.656;2023-02-28T15:29:48;5.30;66.40
24560;DHT22;12727;49.934;8.656;2023-02-28T15:32:29;5.30;66.00
24560;DHT22;12727;49.934;8.656;2023-02-28T15:34:57;5.30;66.30
24560;DHT22;12727;49.934;8.656;2023-02-28T15:39:53;5.20;66.50
24560;DHT22;12727;49.934;8.656;2023-02-28T15:42:22;5.20;66.90
24560;DHT22;12727;49.934;8.656;2023-02-28T15:44:48;5.20;68.50
24560;DHT22;12727;49.934;8.656;2023-02-28T15:47:20;5.20;66.70
24560;DHT22;12727;49.934;8.656;2023-02-28T15:50:06;5.20;66.90
24560;DHT22;12727;49.934;8.656;2023-02-28T15:52:39;5.30;66.50
24560;DHT22;12727;49.934;8.656;2023-02-28T15:55:28;5.20;66.70
24560;DHT22;12727;49.934;8.656;2023-02-28T15:58:00;5.30;68.20
24560;DHT22;12727;49.934;8.656;2023-02-28T16:00:31;5.30;66.60
24560;DHT22;12727;49.934;8.656;2023-02-28T16:02:59;5.20;67.60
24560;DHT22;12727;49.934;8.656;2023-02-28T16:05:29;5.20;67.90
24560;DHT22;12727;49.934;8.656;2023-02-28T16:08:00;5.10;69.00
24560;DHT22;12727;49.934;8.656;2023-02-28T16:10:27;5.10;68.90
24560;DHT22;12727;49.934;8.656;2023-02-28T16:12:55;5.10;68.90
24560;DHT22;12727;49.934;8.656;2023-02-28T16:15:28;5.00;68.10
24560;DHT22;12727;49.934;8.656;2023-02-28T16:17:55;5.00;69.20
24560;DHT22;12727;49.934;8.656;2023-02-28T16:20:24;4.90;68.20
24560;DHT22;12727;49.934;8.656;2023-02-28T16:22:50;4.90;69.30
24560;DHT22;12727;49.934;8.656;2023-02-28T16:25:18;4.80;69.50
24560;DHT22;12727;49.934;8.656;2023-02-28T16:27:47;4.80;70.30
24560;DHT22;12727;49.934;8.656;2023-02-28T16:30:35;4.70;70.60
24560;DHT22;12727;49.934;8.656;2023-02-28T16:33:00;4.70;71.20
24560;DHT22;12727;49.934;8.656;2023-02-28T16:35:26;4.60;70.30
24560;DHT22;12727;49.934;8.656;2023-02-28T16:37:52;4.50;70.90
24560;DHT22;12727;49.934;8.656;2023-02-28T16:40:24;4.50;70.50
24560;DHT22;12727;49.934;8.656;2023-02-28T16:42:53;4.50;70.60
24560;DHT22;12727;49.934;8.656;2023-02-28T16:45:25;4.40;72.00
24560;DHT22;12727;49.934;8.656;2023-02-28T16:47:51;4.30;72.50
24560;DHT22;12727;49.934;8.656;2023-02-28T16:50:22;4.20;72.70
24560;DHT22;12727;49.934;8.656;2023-02-28T16:52:49;4.20;72.10
24560;DHT22;12727;49.934;8.656;2023-02-28T16:55:15;4.10;72.50
24560;DHT22;12727;49.934;8.656;2023-02-28T16:57:41;4.00;73.10
24560;DHT22;12727;49.934;8.656;2023-02-28T17:00:08;3.90;73.30
24560;DHT22;12727;49.934;8.656;2023-02-28T17:02:36;3.80;73.90
24560;DHT22;12727;49.934;8.656;2023-02-28T17:05:02;3.70;74.30
24560;DHT22;12727;49.934;8.656;2023-02-28T17:07:27;3.60;74.30
24560;DHT22;12727;49.934;8.656;2023-02-28T17:09:53;3.50;74.70
24560;DHT22;12727;49.934;8.656;2023-02-28T17:12:18;3.60;74.30
24560;DHT22;12727;49.934;8.656;2023-02-28T17:14:44;3.50;75.20
24560;DHT22;12727;49.934;8.656;2023-02-28T17:17:17;3.40;75.70
24560;DHT22;12727;49.934;8.656;2023-02-28T17:19:43;3.30;76.20
24560;DHT22;12727;49.934;8.656;2023-02-28T17:22:09;3.20;76.90
24560;DHT22;12727;49.934;8.656;2023-02-28T17:24:35;3.10;77.30
24560;DHT22;12727;49.934;8.656;2023-02-28T17:27:01;2.90;77.90
24560;DHT22;12727;49.934;8.656;2023-02-28T17:29:27;2.80;78.00
24560;DHT22;12727;49.934;8.656;2023-02-28T17:31:53;2.80;78.10
24560;DHT22;12727;49.934;8.656;2023-02-28T17:34:19;2.80;78.50
24560;DHT22;12727;49.934;8.656;2023-02-28T17:36:46;2.80;78.50
24560;DHT22;12727;49.934;8.656;2023-02-28T17:39:13;2.70;78.50
24560;DHT22;12727;49.934;8.656;2023-02-28T17:41:41;2.70;78.90
24560;DHT22;12727;49.934;8.656;2023-02-28T17:44:08;2.60;79.50
24560;DHT22;12727;49.934;8.656;2023-02-28T17:46:34;2.60;79.80
24560;DHT22;12727;49.934;8.656;2023-02-28T17:49:00;2.60;79.40
24560;DHT22;12727;49.934;8.656;2023-02-28T17:51:26;2.50;79.50
24560;DHT22;12727;49.934;8.656;2023-02-28T17:53:52;2.40;80.00
24560;DHT22;12727;49.934;8.656;2023-02-28T17:56:20;2.40;80.80
24560;DHT22;12727;49.934;8.656;2023-02-28T17:58:54;2.30;80.90
24560;DHT22;12727;49.934;8.656;2023-02-28T18:01:20;2.20;81.40
24560;DHT22;12727;49.934;8.656;2023-02-28T18:03:48;2.10;82.00
24560;DHT22;12727;49.934;8.656;2023-02-28T18:06:18;2.00;82.50
24560;DHT22;12727;49.934;8.656;2023-02-28T18:08:45;2.00;82.20
24560;DHT22;12727;49.934;8.656;2023-02-28T18:11:11;2.00;82.40
24560;DHT22;12727;49.934;8.656;2023-02-28T18:13:47;1.90;82.70
24560;DHT22;12727;49.934;8.656;2023-02-28T18:16:13;1.80;82.90
24560;DHT22;12727;49.934;8.656;2023-02-28T18:18:39;1.80;83.20
24560;DHT22;12727;49.934;8.656;2023-02-28T18:21:06;1.80;83.30
24560;DHT22;12727;49.934;8.656;2023-02-28T18:23:34;1.70;83.40